Time;durP1;ratioP1;P1;durP2;ratioP2;P2;SDS_P1;SDS_P2;PMS_P1;PMS_P2;Temp;Humidity;BMP_temperature;BMP_pressure;BME280_temperature;BME280_humidity;BME280_pressure;Samples;Min_cycle;Max_cycle;Signal;HPM_P1;HPM_P2
2022/04/12 00:00:05;;;;;;;16.33;6.00;;;;;;;5.08;70.06;101088.25;6006852;28;20519;-71
2022/04/12 00:03:00;;;;;;;12.75;5.68;;;;;;;5.06;69.39;101090.97;6004447;28;20106;-71
2022/04/12 00:05:56;;;;;;;13.67;5.97;;;;;;;4.86;68.95;101090.63;6004695;28;20081;-71
2022/04/12 00:08:51;;;;;;;11.52;5.78;;;;;;;4.82;68.74;101093.44;6004373;28;20077;-72
2022/04/12 00:11:46;;;;;;;13.10;5.60;;;;;;;4.76;68.82;101085.09;6003707;28;20046;-71
2022/04/12 00:14:42;;;;;;;11.20;5.30;;;;;;;4.73;68.63;101078.25;6004245;28;20039;-71
2022/04/12 00:20:53;;;;;;;13.27;6.15;;;;;;;4.70;68.89;101070.59;5992984;28;20042;-71
2022/04/12 00:23:48;;;;;;;11.93;5.97;;;;;;;4.67;69.32;101073.41;6003919;28;20031;-70
2022/04/12 00:26:43;;;;;;;15.48;5.80;;;;;;;4.69;68.86;101078.56;6004233;28;20027;-71
2022/04/12 00:29:39;;;;;;;12.93;6.47;;;;;;;4.63;68.76;101066.69;6003550;28;20093;-70
2022/04/12 00:32:35;;;;;;;12.73;5.70;;;;;;;4.60;69.36;101061.63;6003464;28;20030;-71
2022/04/12 00:35:30;;;;;;;13.48;5.82;;;;;;;4.68;69.17;101053.25;6003932;28;20138;-70
2022/04/12 00:38:33;;;;;;;11.53;5.57;;;;;;;4.65;69.23;101049.03;6010050;28;20031;-70
2022/04/12 00:41:35;;;;;;;12.32;5.57;;;;;;;4.60;68.81;101053.75;6003180;28;20394;-70
2022/04/12 00:44:30;;;;;;;13.95;5.57;;;;;;;4.59;69.83;101035.47;6008232;28;20030;-70
2022/04/12 00:47:26;;;;;;;13.17;5.93;;;;;;;4.64;69.34;101042.13;6004769;28;20461;-70
2022/04/12 00:50:21;;;;;;;14.45;6.13;;;;;;;4.61;68.75;101029.19;6002866;28;20035;-71
2022/04/12 00:53:16;;;;;;;14.80;5.40;;;;;;;4.48;69.94;101028.31;5996320;28;20116;-71
2022/04/12 00:56:12;;;;;;;15.40;6.23;;;;;;;4.46;69.62;101021.44;6003404;28;20294;-71
2022/04/12 00:59:08;;;;;;;12.43;5.43;;;;;;;4.49;69.89;101027.34;6003001;28;20038;-71
2022/04/12 01:02:04;;;;;;;13.95;6.05;;;;;;;4.50;69.95;101023.78;6002486;28;20685;-71
2022/04/12 01:05:00;;;;;;;12.45;6.20;;;;;;;4.48;69.44;101020.44;6003142;28;20034;-70
2022/04/12 01:07:56;;;;;;;16.15;5.90;;;;;;;4.50;69.51;101022.94;6003462;28;20027;-70
2022/04/12 01:10:52;;;;;;;16.23;5.45;;;;;;;4.43;69.94;101019.84;5985388;28;20479;-70
2022/04/12 01:13:48;;;;;;;16.30;5.63;;;;;;;4.41;69.79;101008.63;5985892;28;20038;-70
2022/04/12 01:16:43;;;;;;;15.17;5.77;;;;;;;4.42;70.12;101015.56;6003136;28;20033;-70
2022/04/12 01:19:38;;;;;;;13.93;5.63;;;;;;;4.43;69.45;101008.53;6002428;28;20137;-71
2022/04/12 01:22:36;;;;;;;14.87;6.33;;;;;;;4.39;70.99;101013.13;6002579;28;20306;-70
2022/04/12 01:25:32;;;;;;;14.38;5.30;;;;;;;4.39;70.11;101014.91;5985557;28;20034;-70
2022/04/12 01:28:27;;;;;;;14.52;5.55;;;;;;;4.29;70.64;101019.94;6002980;28;20035;-73
2022/04/12 01:31:26;;;;;;;12.88;5.75;;;;;;;4.38;70.82;101013.22;6002327;28;20143;-71
2022/04/12 01:34:22;;;;;;;10.88;5.28;;;;;;;4.30;69.74;101008.47;5985195;28;20054;-71
2022/04/12 01:37:17;;;;;;;17.23;6.00;;;;;;;4.28;69.31;101006.88;6002708;28;20073;-73
2022/04/12 01:40:13;;;;;;;13.77;5.33;;;;;;;4.20;70.07;101018.72;6001895;28;20041;-71
2022/04/12 01:43:10;;;;;;;11.80;5.25;;;;;;;4.21;71.19;101009.09;6002794;28;20070;-72
2022/04/12 01:46:06;;;;;;;11.50;4.85;;;;;;;4.08;70.48;101002.91;6007285;28;20038;-73
2022/04/12 01:49:01;;;;;;;12.60;6.15;;;;;;;4.02;70.82;100998.06;6002270;28;20058;-73
2022/04/12 01:52:01;;;;;;;14.83;5.23;;;;;;;3.98;71.41;101009.69;6011065;28;20050;-72
2022/04/12 01:54:56;;;;;;;9.60;4.75;;;;;;;3.95;71.13;101017.75;6002523;28;20077;-71
2022/04/12 01:57:51;;;;;;;10.83;5.23;;;;;;;3.96;70.52;101003.69;6005354;28;20043;-72
2022/04/12 02:00:46;;;;;;;10.53;4.83;;;;;;;4.00;70.56;101005.19;6006598;28;20517;-71
2022/04/12 02:03:42;;;;;;;12.03;5.93;;;;;;;3.95;71.50;100999.38;6007005;28;20394;-72
2022/04/12 02:06:37;;;;;;;12.53;5.17;;;;;;;3.94;71.50;100997.72;6007428;28;20103;-71
2022/04/12 02:09:32;;;;;;;13.73;6.43;;;;;;;3.87;71.01;100996.41;6006689;28;20039;-71
2022/04/12 02:12:28;;;;;;;13.80;5.27;;;;;;;3.82;71.09;100994.06;6006537;28;20031;-71
2022/04/12 02:15:23;;;;;;;16.58;6.45;;;;;;;3.81;70.96;100991.53;6006823;28;20050;-71
2022/04/12 02:18:19;;;;;;;13.97;5.90;;;;;;;3.73;71.04;100985.94;6006633;28;20126;-72
2022/04/12 02:21:14;;;;;;;15.60;5.57;;;;;;;3.65;72.45;100985.56;6006428;28;20570;-73
2022/04/12 02:24:10;;;;;;;15.45;5.65;;;;;;;3.59;72.73;100985.00;6013636;28;20034;-70
2022/04/12 02:27:05;;;;;;;13.53;5.60;;;;;;;3.61;72.30;100993.63;6010175;28;20038;-71
2022/04/12 02:30:00;;;;;;;16.40;5.20;;;;;;;3.58;72.35;100991.22;6006285;28;20023;-70
2022/04/12 02:32:56;;;;;;;10.77;5.40;;;;;;;3.64;71.80;101000.47;6006448;28;20167;-73
2022/04/12 02:35:51;;;;;;;14.70;5.67;;;;;;;3.64;72.14;100991.75;6006764;28;20089;-72
2022/04/12 02:38:46;;;;;;;12.30;5.63;;;;;;;3.59;71.72;100998.13;6006163;28;20386;-71
2022/04/12 02:41:42;;;;;;;11.50;4.83;;;;;;;3.53;71.70;100989.81;6005546;28;20061;-71
2022/04/12 02:44:37;;;;;;;12.87;5.70;;;;;;;3.61;71.64;100983.13;6011701;28;20397;-71
2022/04/12 02:47:32;;;;;;;12.30;5.63;;;;;;;3.49;71.34;100977.81;6013774;28;20031;-72
2022/04/12 02:50:28;;;;;;;11.60;5.50;;;;;;;3.48;71.94;100982.22;6005540;28;20097;-72
2022/04/12 02:53:24;;;;;;;12.40;5.20;;;;;;;3.48;71.46;100982.22;6016304;28;20039;-71
2022/04/12 02:56:19;;;;;;;9.53;4.67;;;;;;;3.46;71.59;100978.84;6005865;28;20034;-70
2022/04/12 02:59:14;;;;;;;12.43;5.07;;;;;;;3.50;71.35;100974.28;6005985;28;20078;-71
2022/04/12 03:02:09;;;;;;;9.87;4.73;;;;;;;3.48;71.84;100976.97;6005159;28;20045;-71
2022/04/12 03:05:05;;;;;;;12.00;4.90;;;;;;;3.45;71.52;100969.28;6006094;28;20038;-71
2022/04/12 03:08:01;;;;;;;11.60;4.43;;;;;;;3.47;72.20;100977.91;6004793;28;20286;-73
2022/04/12 03:10:56;;;;;;;15.68;4.88;;;;;;;3.49;72.26;100977.81;6005116;28;20027;-72
2022/04/12 03:13:52;;;;;;;12.07;5.10;;;;;;;3.42;70.97;100969.50;6005376;28;20046;-70
2022/04/12 03:16:47;;;;;;;12.40;4.72;;;;;;;3.44;72.22;100972.88;6005757;28;20143;-72
2022/04/12 03:19:42;;;;;;;11.73;4.77;;;;;;;3.37;72.19;100982.03;6005560;28;20054;-71
2022/04/12 03:22:41;;;;;;;10.97;4.50;;;;;;;3.40;71.27;100966.13;6004866;28;20604;-70
2022/04/12 03:25:38;;;;;;;11.55;5.25;;;;;;;3.44;71.37;100972.88;6005578;28;20035;-72
2022/04/12 03:28:34;;;;;;;12.82;4.60;;;;;;;3.46;71.80;100975.38;6005274;28;20035;-71
2022/04/12 03:31:29;;;;;;;11.57;5.10;;;;;;;3.61;70.63;100983.13;6004677;28;20049;-72
2022/04/12 03:34:24;;;;;;;11.23;4.40;;;;;;;3.67;70.44;100986.34;6005396;28;20038;-73
2022/04/12 03:37:19;;;;;;;9.47;4.60;;;;;;;3.64;70.43;100983.91;6006424;28;20430;-70
2022/04/12 03:40:15;;;;;;;10.90;4.57;;;;;;;3.63;71.03;100982.19;6004519;28;20031;-73
2022/04/12 03:43:10;;;;;;;12.73;5.03;;;;;;;3.77;70.15;100982.19;6005027;28;20042;-71
2022/04/12 03:46:06;;;;;;;16.50;5.13;;;;;;;3.75;70.06;100970.97;6014635;28;20041;-72
2022/04/12 03:49:01;;;;;;;11.07;4.80;;;;;;;3.82;69.87;100969.63;6005094;28;20109;-72
2022/04/12 03:51:56;;;;;;;9.70;3.70;;;;;;;3.84;69.43;100959.88;6013489;28;20030;-71
2022/04/12 03:54:51;;;;;;;10.30;3.97;;;;;;;4.02;68.62;100963.97;6005708;28;20037;-71
2022/04/12 03:57:47;;;;;;;10.30;3.63;;;;;;;4.11;67.98;100963.34;6004437;28;20043;-72
2022/04/12 04:00:42;;;;;;;9.47;3.50;;;;;;;4.17;67.97;100957.72;6004222;28;20073;-72
2022/04/12 04:03:37;;;;;;;9.23;3.30;;;;;;;4.30;67.65;100958.59;6004423;28;20047;-70
2022/04/12 04:06:33;;;;;;;9.68;4.05;;;;;;;4.49;66.50;100959.06;6004486;28;20026;-73
2022/04/12 04:09:28;;;;;;;8.60;3.83;;;;;;;4.58;66.08;100966.34;6004649;28;20465;-72
2022/04/12 04:12:23;;;;;;;7.32;3.15;;;;;;;4.63;65.75;100952.91;6003735;28;20019;-71
2022/04/12 04:15:19;;;;;;;9.77;3.60;;;;;;;4.74;65.32;100960.91;6004568;28;20475;-72
2022/04/12 04:18:14;;;;;;;7.20;3.17;;;;;;;4.74;64.89;100959.13;6004272;28;20522;-71
2022/04/12 04:21:09;;;;;;;6.57;2.53;;;;;;;4.82;65.05;100967.34;6002928;28;20472;-71
2022/04/12 04:24:05;;;;;;;6.73;3.50;;;;;;;4.98;64.43;100967.13;6004326;28;20274;-71
2022/04/12 04:27:05;;;;;;;8.07;2.88;;;;;;;5.09;63.94;100966.41;6003965;28;20027;-71
2022/04/12 04:30:03;;;;;;;5.97;2.95;;;;;;;5.12;64.12;100968.81;6003710;28;20477;-72
2022/04/12 04:32:58;;;;;;;8.00;3.20;;;;;;;5.18;63.95;100968.41;6004067;28;20035;-72
2022/04/12 04:35:54;;;;;;;6.53;2.87;;;;;;;5.19;64.06;100970.09;6003485;28;20049;-72
2022/04/12 04:38:49;;;;;;;8.53;3.17;;;;;;;5.21;64.60;100970.84;6003769;28;20147;-73
2022/04/12 04:41:44;;;;;;;6.60;3.07;;;;;;;5.24;63.82;100973.25;6003004;28;20050;-72
2022/04/12 04:44:40;;;;;;;6.53;2.97;;;;;;;5.25;63.51;100970.50;6008933;28;20023;-72
2022/04/12 04:47:35;;;;;;;10.70;3.50;;;;;;;5.26;63.44;100959.06;6011186;28;20600;-71
2022/04/12 04:50:32;;;;;;;5.80;2.70;;;;;;;5.32;63.57;100968.31;6002731;28;20038;-72
2022/04/12 04:53:28;;;;;;;7.47;3.42;;;;;;;5.32;63.37;100963.03;6007229;28;20434;-72
2022/04/12 04:56:25;;;;;;;6.60;3.00;;;;;;;5.35;63.98;100968.91;6003198;28;20031;-72
2022/04/12 04:59:20;;;;;;;11.40;3.42;;;;;;;5.29;64.54;100976.41;6003531;28;20031;-74
2022/04/12 05:02:15;;;;;;;8.55;3.03;;;;;;;5.28;64.06;100986.06;6002623;28;20514;-72
2022/04/12 05:05:11;;;;;;;9.73;3.57;;;;;;;5.30;64.73;100999.09;6003208;28;20035;-73
2022/04/12 05:08:06;;;;;;;7.22;3.10;;;;;;;5.34;64.70;101003.22;6003332;28;20573;-72
2022/04/12 05:11:02;;;;;;;8.93;3.78;;;;;;;5.38;64.57;101012.59;6002348;28;20633;-73
2022/04/12 05:13:57;;;;;;;8.93;4.10;;;;;;;5.36;64.86;101011.81;6003310;28;20035;-70
2022/04/12 05:16:52;;;;;;;8.93;3.55;;;;;;;5.41;63.64;101010.56;6004940;28;20033;-72
2022/04/12 05:19:48;;;;;;;9.10;3.47;;;;;;;5.45;64.30;101008.56;6003177;28;20544;-71
2022/04/12 05:22:43;;;;;;;9.93;3.43;;;;;;;5.43;64.59;101010.47;6002494;28;20030;-70
2022/04/12 05:25:38;;;;;;;9.70;3.80;;;;;;;5.51;64.15;101017.81;6003968;28;20043;-71
2022/04/12 05:28:34;;;;;;;8.77;3.17;;;;;;;5.61;63.67;101011.81;6002925;28;20799;-71
2022/04/12 05:31:29;;;;;;;8.40;3.37;;;;;;;5.58;64.26;101006.75;6001554;28;20105;-72
2022/04/12 05:34:24;;;;;;;9.03;3.20;;;;;;;5.68;63.95;101007.81;6003114;28;20282;-72
2022/04/12 05:37:20;;;;;;;7.80;3.73;;;;;;;5.72;63.60;101009.28;6002873;28;20018;-73
2022/04/12 05:40:15;;;;;;;7.53;3.20;;;;;;;5.91;63.68;101004.44;6001860;28;20324;-71
2022/04/12 05:43:11;;;;;;;5.25;2.95;;;;;;;6.05;62.60;101013.97;6002419;28;20286;-73
2022/04/12 05:46:06;;;;;;;8.02;3.20;;;;;;;6.02;63.56;101023.88;6015599;28;20038;-72
2022/04/12 05:49:01;;;;;;;7.60;3.30;;;;;;;6.36;62.15;101015.25;6002579;28;20043;-71
2022/04/12 05:51:57;;;;;;;9.00;3.45;;;;;;;6.37;62.60;101019.53;6011338;28;20500;-72
2022/04/12 05:54:52;;;;;;;8.32;3.40;;;;;;;6.32;62.44;101017.25;6003172;28;20514;-72
2022/04/12 05:57:50;;;;;;;8.13;3.10;;;;;;;6.58;61.66;101012.69;6002319;28;20085;-72
2022/04/12 06:00:45;;;;;;;7.70;3.38;;;;;;;6.75;61.29;101012.28;6001623;28;20053;-70
2022/04/12 06:03:40;;;;;;;7.97;3.70;;;;;;;6.82;60.34;101005.59;6002413;28;20043;-72
2022/04/12 06:06:36;;;;;;;6.37;3.30;;;;;;;6.74;60.99;101007.97;6002586;28;20345;-72
2022/04/12 06:09:31;;;;;;;8.50;3.50;;;;;;;6.54;61.53;101000.72;6002126;28;20045;-71
2022/04/12 06:12:27;;;;;;;7.07;3.13;;;;;;;6.57;61.61;101006.59;6001869;28;20494;-72
2022/04/12 06:15:23;;;;;;;6.85;3.13;;;;;;;6.66;60.67;100999.78;6001750;28;20061;-71
2022/04/12 06:18:18;;;;;;;7.30;3.20;;;;;;;6.70;60.81;101006.53;6002383;28;20122;-70
2022/04/12 06:21:13;;;;;;;10.87;3.67;;;;;;;6.79;61.15;101000.59;6001803;28;20046;-71
2022/04/12 06:24:09;;;;;;;7.93;3.17;;;;;;;6.90;61.02;100994.50;6002120;28;20027;-72
2022/04/12 06:27:04;;;;;;;9.10;3.37;;;;;;;6.95;60.88;100982.66;6002257;28;20458;-70
2022/04/12 06:30:09;;;;;;;11.02;3.85;;;;;;;6.97;61.01;100987.78;6001234;28;20270;-70
2022/04/12 06:33:04;;;;;;;10.07;3.35;;;;;;;7.10;60.59;100989.38;6002406;28;20023;-72
2022/04/12 06:35:59;;;;;;;7.32;3.60;;;;;;;7.20;59.97;100993.00;6002098;28;20074;-72
2022/04/12 06:38:57;;;;;;;6.20;3.60;;;;;;;7.21;60.15;100999.09;6002001;28;20430;-70
2022/04/12 06:41:53;;;;;;;9.95;3.72;;;;;;;7.30;60.10;101006.31;6001508;28;20490;-72
2022/04/12 06:44:48;;;;;;;9.10;3.10;;;;;;;7.32;60.24;101003.56;6012627;28;20030;-71
2022/04/12 06:47:43;;;;;;;11.43;3.93;;;;;;;7.37;59.93;101002.25;6012028;28;20114;-71
2022/04/12 06:50:39;;;;;;;10.18;3.08;;;;;;;7.58;59.09;100994.47;6005429;28;20105;-71
2022/04/12 06:53:34;;;;;;;6.93;3.33;;;;;;;7.82;58.17;101003.09;6012992;28;20035;-73
2022/04/12 06:56:29;;;;;;;7.10;3.08;;;;;;;7.67;57.87;101004.28;6006228;28;20050;-71
2022/04/12 06:59:25;;;;;;;7.27;3.27;;;;;;;7.85;57.36;100988.81;6005763;28;20038;-72
2022/04/12 07:02:20;;;;;;;8.05;2.83;;;;;;;8.23;57.50;100997.16;6005299;28;20513;-71
2022/04/12 07:05:16;;;;;;;9.73;4.20;;;;;;;8.45;56.06;100997.13;6005712;28;20062;-72
2022/04/12 07:08:12;;;;;;;8.23;3.45;;;;;;;8.42;56.39;100999.16;6006359;28;20062;-71
2022/04/12 07:11:07;;;;;;;10.95;3.58;;;;;;;8.85;56.13;100997.31;6005238;28;20089;-72
2022/04/12 07:14:02;;;;;;;9.90;3.50;;;;;;;8.84;55.87;100992.97;6005646;28;20445;-72
2022/04/12 07:16:58;;;;;;;7.10;3.07;;;;;;;9.08;55.17;100982.97;6005796;28;20034;-72
2022/04/12 07:19:53;;;;;;;6.90;3.70;;;;;;;9.12;55.35;100976.47;6005067;28;20051;-70
2022/04/12 07:22:48;;;;;;;6.73;3.17;;;;;;;9.27;53.73;100980.44;6005217;28;20270;-72
2022/04/12 07:25:44;;;;;;;8.10;3.83;;;;;;;8.99;55.09;100989.06;6005567;28;20656;-70
2022/04/12 07:28:39;;;;;;;8.43;3.70;;;;;;;8.95;55.81;100984.97;6005285;28;20038;-71
2022/04/12 07:31:34;;;;;;;9.20;3.60;;;;;;;9.06;55.26;100984.91;6004924;28;20269;-72
2022/04/12 07:34:30;;;;;;;8.03;3.47;;;;;;;9.07;56.51;100988.41;6005214;28;20039;-70
2022/04/12 07:37:25;;;;;;;6.97;3.65;;;;;;;9.21;55.62;100996.03;6005036;28;20084;-72
2022/04/12 07:40:20;;;;;;;8.83;3.53;;;;;;;9.36;55.62;100995.53;6004542;28;20042;-72
2022/04/12 07:43:16;;;;;;;7.97;3.33;;;;;;;9.70;54.67;100988.19;6004952;28;20034;-72
2022/04/12 07:46:12;;;;;;;7.27;3.20;;;;;;;9.81;55.78;100989.91;6018034;28;21029;-72
2022/04/12 07:49:08;;;;;;;8.98;4.20;;;;;;;10.10;53.98;100993.47;6004823;28;20650;-70
2022/04/12 07:52:04;;;;;;;7.60;3.53;;;;;;;10.27;54.44;101003.44;6005447;28;20026;-72
2022/04/12 07:54:59;;;;;;;8.85;4.05;;;;;;;10.42;54.41;100998.56;6004282;28;20418;-70
2022/04/12 07:57:54;;;;;;;9.60;3.63;;;;;;;10.58;53.69;100997.03;6004557;28;20041;-70
2022/04/12 08:00:50;;;;;;;8.47;3.60;;;;;;;10.53;53.41;101001.94;6004227;28;20482;-72
2022/04/12 08:03:47;;;;;;;8.25;3.88;;;;;;;10.49;53.44;100992.56;6003489;28;20030;-73
2022/04/12 08:06:42;;;;;;;9.75;3.88;;;;;;;10.81;53.47;101002.06;6004469;28;20170;-72
2022/04/12 08:09:37;;;;;;;6.80;3.57;;;;;;;10.95;51.96;101004.31;6001692;28;20031;-73
2022/04/12 08:12:33;;;;;;;7.10;3.70;;;;;;;11.19;52.06;101007.34;6003558;28;20289;-73
2022/04/12 08:15:28;;;;;;;5.93;3.40;;;;;;;11.70;49.95;100996.31;6007582;28;20307;-73
2022/04/12 08:18:24;;;;;;;6.97;3.55;;;;;;;11.54;49.84;101001.38;6008560;28;20054;-73
2022/04/12 08:21:34;;;;;;;9.85;4.07;;;;;;;11.78;49.97;101004.38;6003773;28;20066;-74
2022/04/12 08:24:29;;;;;;;8.50;3.58;;;;;;;11.84;50.26;101001.13;6003748;28;20126;-72
2022/04/12 08:27:25;;;;;;;6.60;3.37;;;;;;;12.48;48.26;101001.84;6004361;28;20474;-70
2022/04/12 08:30:20;;;;;;;8.20;3.63;;;;;;;12.67;48.13;100984.91;6003465;28;20393;-72
2022/04/12 08:33:16;;;;;;;8.80;3.83;;;;;;;12.42;48.08;100996.28;5995672;28;20039;-70
2022/04/12 08:36:11;;;;;;;7.32;3.53;;;;;;;12.46;47.88;100993.19;6002938;28;20062;-72
2022/04/12 08:39:06;;;;;;;8.97;3.50;;;;;;;12.20;47.69;100991.44;6002903;28;20053;-71
2022/04/12 08:42:03;;;;;;;8.20;4.10;;;;;;;12.15;48.10;100999.03;6002751;28;20349;-71
2022/04/12 08:45:02;;;;;;;8.27;4.13;;;;;;;12.15;48.00;101007.00;6011148;28;20428;-73
2022/04/12 08:47:58;;;;;;;8.77;4.05;;;;;;;12.32;48.25;101003.50;6007500;28;20026;-73
2022/04/12 08:50:53;;;;;;;6.85;3.50;;;;;;;12.69;47.09;101001.56;6003493;28;20114;-70
2022/04/12 08:53:51;;;;;;;10.93;4.03;;;;;;;13.35;46.60;100993.94;6012056;28;20039;-72
2022/04/12 08:56:48;;;;;;;9.23;4.22;;;;;;;13.16;45.87;100993.31;6003085;28;20022;-72
2022/04/12 08:59:43;;;;;;;11.43;4.50;;;;;;;13.05;46.08;100989.03;6002683;28;20422;-72
2022/04/12 09:02:39;;;;;;;9.33;3.90;;;;;;;13.25;45.27;100987.06;6002142;28;20031;-72
2022/04/12 09:05:35;;;;;;;6.43;3.72;;;;;;;13.51;45.69;100985.22;6002296;28;20023;-72
2022/04/12 09:08:31;;;;;;;10.63;4.00;;;;;;;13.72;45.95;100983.81;6001565;28;20043;-72
2022/04/12 09:11:27;;;;;;;8.57;4.50;;;;;;;13.91;44.56;100980.09;6001558;28;20051;-72
2022/04/12 09:14:22;;;;;;;7.47;3.78;;;;;;;14.11;44.76;100986.81;6002116;28;20085;-71
2022/04/12 09:17:27;;;;;;;9.47;3.87;;;;;;;13.74;45.08;100989.00;6002298;28;20038;-73
2022/04/12 09:20:22;;;;;;;10.13;4.50;;;;;;;13.87;45.10;100994.72;6001946;28;20058;-70
2022/04/12 09:23:18;;;;;;;9.30;4.80;;;;;;;13.87;43.59;100994.72;5984917;28;20415;-72
2022/04/12 09:26:21;;;;;;;9.30;4.40;;;;;;;13.73;44.18;100982.00;6002235;28;20100;-72
2022/04/12 09:29:25;;;;;;;7.90;4.55;;;;;;;13.60;43.90;100981.59;6002416;28;20035;-72
2022/04/12 09:32:22;;;;;;;8.73;4.68;;;;;;;13.79;45.04;100975.19;5984463;28;20034;-71
2022/04/12 09:35:17;;;;;;;11.80;4.63;;;;;;;13.67;44.64;100969.31;6001919;28;20513;-71
2022/04/12 09:38:13;;;;;;;9.53;3.77;;;;;;;13.87;44.79;100978.72;6002140;28;20030;-72
2022/04/12 09:41:19;;;;;;;10.43;4.63;;;;;;;13.75;44.27;100973.84;5998808;28;20757;-72
2022/04/12 09:44:18;;;;;;;11.35;4.82;;;;;;;13.49;44.49;100976.53;6000633;28;20282;-71
2022/04/12 09:47:14;;;;;;;9.00;4.50;;;;;;;13.76;45.39;100970.19;6008764;28;20030;-72
2022/04/12 09:50:10;;;;;;;8.40;4.60;;;;;;;13.65;44.86;100969.47;5998609;28;20479;-71
2022/04/12 09:53:06;;;;;;;11.50;5.15;;;;;;;13.58;45.39;100962.28;6004104;28;20027;-72
2022/04/12 09:56:13;;;;;;;10.07;5.25;;;;;;;13.90;45.49;100962.41;6000185;28;20045;-70
2022/04/12 09:59:09;;;;;;;13.13;4.93;;;;;;;14.07;45.07;100964.16;6001479;28;20390;-71
2022/04/12 10:02:04;;;;;;;8.37;4.27;;;;;;;14.35;45.77;100969.25;6000726;28;20054;-72
2022/04/12 10:05:00;;;;;;;9.43;4.40;;;;;;;14.59;44.80;100951.44;6002178;28;20113;-72
2022/04/12 10:07:59;;;;;;;10.95;5.20;;;;;;;14.58;44.29;100959.59;6002592;28;20875;-70
2022/04/12 10:10:54;;;;;;;10.43;4.70;;;;;;;14.66;45.13;100954.25;6001247;28;20034;-71
2022/04/12 10:13:51;;;;;;;11.50;5.40;;;;;;;14.94;43.90;100936.06;6002257;28;20660;-70
2022/04/12 10:16:46;;;;;;;9.90;4.60;;;;;;;14.80;43.61;100935.75;6002236;28;20497;-70
2022/04/12 10:19:42;;;;;;;12.10;5.33;;;;;;;14.95;43.83;100927.88;5988661;28;20035;-71
2022/04/12 10:22:37;;;;;;;9.98;4.25;;;;;;;15.04;43.96;100926.88;6006426;28;20118;-71
2022/04/12 10:25:33;;;;;;;8.13;4.32;;;;;;;14.92;44.02;100922.88;5989406;28;20073;-71
2022/04/12 10:28:29;;;;;;;9.15;4.50;;;;;;;15.15;44.37;100904.31;5989533;28;20165;-70
2022/04/12 10:31:30;;;;;;;10.68;5.30;;;;;;;15.45;44.77;100912.41;5988714;28;20394;-71
2022/04/12 10:34:26;;;;;;;8.18;4.85;;;;;;;15.40;43.47;100912.09;6007030;28;20082;-72
2022/04/12 10:37:21;;;;;;;9.00;5.15;;;;;;;15.58;42.87;100901.19;6006290;28;20359;-70
2022/04/12 10:40:16;;;;;;;9.60;5.03;;;;;;;15.18;43.57;100886.09;6005660;28;20394;-71
2022/04/12 10:43:13;;;;;;;8.85;4.30;;;;;;;15.66;42.80;100890.44;6006695;28;20470;-72
2022/04/12 10:46:13;;;;;;;8.70;4.45;;;;;;;16.14;41.64;100878.66;6019127;28;20105;-73
2022/04/12 10:49:11;;;;;;;11.48;5.90;;;;;;;15.65;41.23;100877.25;6006534;28;20337;-71
2022/04/12 10:52:07;;;;;;;10.50;4.38;;;;;;;15.53;41.47;100887.50;6013683;28;20034;-74
2022/04/12 10:55:05;;;;;;;9.55;5.40;;;;;;;15.74;41.39;100876.19;6006087;28;20441;-73
2022/04/12 10:58:14;;;;;;;7.80;4.25;;;;;;;15.49;41.10;100881.66;6006234;28;20035;-72
2022/04/12 11:01:12;;;;;;;7.20;4.07;;;;;;;15.88;41.50;100880.81;5987810;28;20482;-71
2022/04/12 11:04:09;;;;;;;7.95;4.85;;;;;;;15.81;41.05;100875.34;6006175;28;20074;-73
2022/04/12 11:07:09;;;;;;;9.48;4.70;;;;;;;16.00;40.31;100849.97;6005841;28;20054;-71
2022/04/12 11:10:06;;;;;;;9.32;4.95;;;;;;;16.06;40.97;100871.47;6004859;28;20165;-73
2022/04/12 11:13:10;;;;;;;10.20;5.47;;;;;;;16.26;40.19;100871.00;6005872;28;20058;-71
2022/04/12 11:16:10;;;;;;;8.32;4.38;;;;;;;16.09;40.44;100881.00;6007022;28;20070;-72
2022/04/12 11:19:19;;;;;;;8.57;5.40;;;;;;;16.39;40.00;100885.47;6005434;28;20034;-71
2022/04/12 11:22:16;;;;;;;8.30;5.53;;;;;;;16.38;40.25;100881.13;6005018;28;20390;-72
2022/04/12 11:25:15;;;;;;;6.95;3.83;;;;;;;16.70;39.64;100858.63;6005386;28;20034;-72
2022/04/12 11:28:14;;;;;;;8.68;3.85;;;;;;;16.81;38.36;100868.06;6005239;28;20109;-73
2022/04/12 11:31:10;;;;;;;8.25;4.00;;;;;;;16.97;38.48;100859.84;6003890;28;20046;-74
2022/04/12 11:34:06;;;;;;;9.88;4.80;;;;;;;17.04;38.50;100861.63;5988103;28;20064;-72
2022/04/12 11:37:09;;;;;;;8.70;4.70;;;;;;;16.81;38.81;100863.53;6005425;28;20031;-71
2022/04/12 11:40:05;;;;;;;7.05;4.20;;;;;;;16.85;38.41;100867.50;6004587;28;20391;-73
2022/04/12 11:43:00;;;;;;;10.63;4.03;;;;;;;17.36;39.01;100854.22;6004588;28;20062;-73
2022/04/12 11:45:57;;;;;;;7.70;4.00;;;;;;;17.38;37.16;100847.66;6018239;28;20506;-73
2022/04/12 11:49:06;;;;;;;7.75;4.10;;;;;;;17.55;36.40;100854.50;6004853;28;20113;-72
2022/04/12 11:52:03;;;;;;;6.50;3.72;;;;;;;17.73;36.82;100862.97;6014322;28;20042;-73
2022/04/12 11:55:00;;;;;;;5.53;3.55;;;;;;;17.48;36.68;100861.59;6005048;28;20034;-72
2022/04/12 11:57:56;;;;;;;6.55;4.20;;;;;;;17.40;36.29;100850.97;6004848;28;20114;-73
2022/04/12 12:00:51;;;;;;;13.63;7.10;;;;;;;17.31;35.70;100862.84;6004027;28;20457;-72
2022/04/12 12:03:46;;;;;;;22.03;10.80;;;;;;;17.62;36.05;100854.56;6004655;28;20043;-71
2022/04/12 12:06:59;;;;;;;15.90;8.63;;;;;;;17.20;36.09;100871.34;6004585;28;20050;-71
2022/04/12 12:09:58;;;;;;;;;;;;;;;17.24;35.94;100856.53;6004891;28;20042;-71
2022/04/12 12:12:54;;;;;;;8.15;4.90;;;;;;;17.66;35.57;100837.09;6004254;28;20042;-72
2022/04/12 12:15:50;;;;;;;7.97;4.20;;;;;;;17.46;36.30;100854.75;6005377;28;20157;-72
2022/04/12 12:18:45;;;;;;;7.53;4.60;;;;;;;17.76;36.58;100856.41;6004166;28;20117;-72
2022/04/12 12:21:44;;;;;;;10.93;5.03;;;;;;;18.14;35.99;100848.97;6003649;28;20033;-70
2022/04/12 12:25:18;;;;;;;7.88;4.13;;;;;;;17.70;34.63;100854.47;6004023;28;20363;-72
2022/04/12 12:28:18;;;;;;;8.40;3.60;;;;;;;17.93;34.54;100848.94;5973217;28;20079;-70
2022/04/12 12:31:14;;;;;;;6.65;3.70;;;;;;;17.78;33.70;100843.63;5999084;28;20045;-71
2022/04/12 12:34:45;;;;;;;7.93;3.60;;;;;;;17.87;33.04;100838.97;6007044;28;20142;-71
2022/04/12 12:37:42;;;;;;;5.53;4.00;;;;;;;17.83;32.99;100835.84;5917553;29;20505;-71
2022/04/12 12:40:39;;;;;;;5.00;3.50;;;;;;;18.13;33.18;100825.81;6000526;28;20042;-72
2022/04/12 12:43:34;;;;;;;5.57;3.58;;;;;;;17.54;33.23;100819.81;6003590;28;20062;-72
2022/04/12 12:46:33;;;;;;;4.97;3.00;;;;;;;17.70;33.45;100820.44;6017011;28;20118;-71
2022/04/12 12:49:36;;;;;;;6.97;3.92;;;;;;;17.75;33.22;100814.50;6002763;28;20026;-73
2022/04/12 12:52:31;;;;;;;10.20;3.70;;;;;;;17.87;33.38;100823.72;6003320;28;20046;-70
2022/04/12 12:55:32;;;;;;;6.90;3.50;;;;;;;18.20;33.14;100813.28;6001309;28;20038;-72
2022/04/12 12:58:31;;;;;;;6.43;3.72;;;;;;;17.90;32.53;100817.13;6000063;28;20022;-72
2022/04/12 13:01:42;;;;;;;5.85;3.80;;;;;;;17.77;33.04;100810.59;6001230;28;20030;-72
2022/04/12 13:04:40;;;;;;;7.07;4.22;;;;;;;17.97;32.98;100834.13;6001381;28;20035;-73
2022/04/12 13:07:38;;;;;;;6.25;3.67;;;;;;;18.19;32.89;100822.38;6001334;28;20027;-71
2022/04/12 13:10:37;;;;;;;5.00;3.22;;;;;;;18.11;32.29;100807.22;6000529;28;20088;-71
2022/04/12 13:13:32;;;;;;;6.47;4.00;;;;;;;18.47;32.59;100808.97;5997303;28;20389;-70
2022/04/12 13:16:28;;;;;;;8.00;3.83;;;;;;;18.62;32.61;100799.81;5999859;28;20031;-71
2022/04/12 13:19:28;;;;;;;6.87;4.10;;;;;;;18.34;32.61;100812.41;6001413;28;20124;-72
2022/04/12 13:22:24;;;;;;;;;;;;;;;18.38;32.18;100816.34;6001303;28;20306;-73
2022/04/12 13:25:19;;;;;;;7.22;4.50;;;;;;;18.67;32.24;100812.69;6002696;28;20354;-72
2022/04/12 13:28:15;;;;;;;8.07;4.20;;;;;;;18.77;32.23;100797.88;6002658;28;20023;-72
2022/04/12 13:31:10;;;;;;;6.38;3.33;;;;;;;18.98;32.03;100805.00;6001859;28;20038;-72
2022/04/12 13:34:05;;;;;;;6.22;3.72;;;;;;;18.65;32.24;100787.84;6000176;28;20023;-71
2022/04/12 13:37:02;;;;;;;7.03;3.63;;;;;;;18.72;32.26;100792.25;6000365;28;20069;-72
2022/04/12 13:39:57;;;;;;;6.55;4.20;;;;;;;18.85;32.35;100784.28;6002208;28;20430;-72
2022/04/12 13:42:52;;;;;;;9.40;4.40;;;;;;;18.49;31.67;100791.66;6001644;28;20093;-73
2022/04/12 13:45:47;;;;;;;5.90;3.40;;;;;;;18.46;31.48;100778.59;6008354;28;20039;-72